sensor_id;sensor_type;location;lat;lon;timestamp;pressure;altitude;pressure_sealevel;temperature;humidity
75208;BME280;63795;55.684;37.864;2022-12-07T00:04:40;101169.72;;;-9.93;61.70
75208;BME280;63795;55.684;37.864;2022-12-07T00:09:41;101173.44;;;-9.99;61.56
75208;BME280;63795;55.684;37.864;2022-12-07T00:14:41;101174.16;;;-10.04;61.43
75208;BME280;63795;55.684;37.864;2022-12-07T00:19:42;101172.41;;;-10.10;61.86
75208;BME280;63795;55.684;37.864;2022-12-07T00:24:42;101161.34;;;-10.15;62.00
75208;BME280;63795;55.684;37.864;2022-12-07T00:29:43;101159.56;;;-10.21;62.36
75208;BME280;63795;55.684;37.864;2022-12-07T00:34:43;101169.41;;;-10.20;62.34
75208;BME280;63795;55.684;37.864;2022-12-07T00:39:45;101151.09;;;-10.31;63.04
75208;BME280;63795;55.684;37.864;2022-12-07T00:44:46;101172.66;;;-10.34;63.55
75208;BME280;63795;55.684;37.864;2022-12-07T00:49:46;101172.19;;;-10.43;63.32
75208;BME280;63795;55.684;37.864;2022-12-07T00:54:47;101175.28;;;-10.51;64.28
75208;BME280;63795;55.684;37.864;2022-12-07T00:59:47;101158.84;;;-10.63;63.88
75208;BME280;63795;55.684;37.864;2022-12-07T01:04:48;101166.69;;;-10.66;64.32
75208;BME280;63795;55.684;37.864;2022-12-07T01:09:48;101165.34;;;-10.75;64.45
75208;BME280;63795;55.684;37.864;2022-12-07T01:14:49;101163.91;;;-10.78;64.32
75208;BME280;63795;55.684;37.864;2022-12-07T01:19:49;101161.41;;;-10.79;64.46
75208;BME280;63795;55.684;37.864;2022-12-07T01:24:50;101152.59;;;-10.81;64.43
75208;BME280;63795;55.684;37.864;2022-12-07T01:29:50;101165.69;;;-10.83;64.45
75208;BME280;63795;55.684;37.864;2022-12-07T01:34:51;101167.38;;;-10.82;64.72
75208;BME280;63795;55.684;37.864;2022-12-07T01:39:51;101163.19;;;-10.85;64.37
75208;BME280;63795;55.684;37.864;2022-12-07T01:50:26;101159.03;;;-10.87;64.46
75208;BME280;63795;55.684;37.864;2022-12-07T01:55:28;101152.34;;;-10.91;64.60
75208;BME280;63795;55.684;37.864;2022-12-07T02:00:29;101150.44;;;-10.91;64.25
75208;BME280;63795;55.684;37.864;2022-12-07T02:05:31;101151.50;;;-10.92;64.12
75208;BME280;63795;55.684;37.864;2022-12-07T02:10:32;101150.69;;;-10.92;64.03
75208;BME280;63795;55.684;37.864;2022-12-07T02:37:21;101121.13;;;-11.13;65.36
75208;BME280;63795;55.684;37.864;2022-12-07T02:42:30;101132.06;;;-11.13;65.55
75208;BME280;63795;55.684;37.864;2022-12-07T02:47:33;101133.34;;;-11.16;66.17
75208;BME280;63795;55.684;37.864;2022-12-07T02:52:34;101139.06;;;-11.17;65.90
75208;BME280;63795;55.684;37.864;2022-12-07T03:02:51;101130.59;;;-11.27;66.58
75208;BME280;63795;55.684;37.864;2022-12-07T03:18:13;101108.72;;;-11.57;67.50
75208;BME280;63795;55.684;37.864;2022-12-07T03:23:15;101105.50;;;-11.66;67.71
75208;BME280;63795;55.684;37.864;2022-12-07T03:28:20;101120.34;;;-11.62;68.38
75208;BME280;63795;55.684;37.864;2022-12-07T03:33:29;101121.91;;;-11.66;67.63
75208;BME280;63795;55.684;37.864;2022-12-07T03:38:40;101110.56;;;-11.81;68.43
75208;BME280;63795;55.684;37.864;2022-12-07T03:43:42;101122.72;;;-11.77;68.48
75208;BME280;63795;55.684;37.864;2022-12-07T03:49:00;101111.41;;;-11.80;68.68
75208;BME280;63795;55.684;37.864;2022-12-07T03:54:33;101115.88;;;-11.86;68.17
75208;BME280;63795;55.684;37.864;2022-12-07T03:59:37;101113.38;;;-11.87;69.02
75208;BME280;63795;55.684;37.864;2022-12-07T04:04:39;101109.66;;;-11.93;69.01
75208;BME280;63795;55.684;37.864;2022-12-07T04:09:39;101108.84;;;-11.93;68.87
75208;BME280;63795;55.684;37.864;2022-12-07T04:14:40;101111.81;;;-11.95;69.12
75208;BME280;63795;55.684;37.864;2022-12-07T04:19:40;101116.78;;;-11.92;69.14
75208;BME280;63795;55.684;37.864;2022-12-07T04:24:40;101114.53;;;-11.95;68.98
75208;BME280;63795;55.684;37.864;2022-12-07T04:29:41;101105.97;;;-11.98;69.07
75208;BME280;63795;55.684;37.864;2022-12-07T04:34:41;101106.41;;;-12.01;69.46
75208;BME280;63795;55.684;37.864;2022-12-07T04:39:42;101108.16;;;-12.07;69.41
75208;BME280;63795;55.684;37.864;2022-12-07T04:44:44;101094.63;;;-12.02;69.61
75208;BME280;63795;55.684;37.864;2022-12-07T04:49:45;101096.75;;;-12.04;69.81
75208;BME280;63795;55.684;37.864;2022-12-07T04:54:45;101112.72;;;-12.01;69.86
75208;BME280;63795;55.684;37.864;2022-12-07T04:59:46;101100.72;;;-12.00;69.72
75208;BME280;63795;55.684;37.864;2022-12-07T05:04:46;101095.97;;;-12.04;70.58
75208;BME280;63795;55.684;37.864;2022-12-07T05:09:47;101108.78;;;-12.05;70.55
75208;BME280;63795;55.684;37.864;2022-12-07T05:14:47;101104.22;;;-12.11;70.98
75208;BME280;63795;55.684;37.864;2022-12-07T05:19:48;101103.16;;;-12.10;70.48
75208;BME280;63795;55.684;37.864;2022-12-07T05:24:48;101106.72;;;-12.09;70.70
75208;BME280;63795;55.684;37.864;2022-12-07T05:29:52;101111.94;;;-12.08;71.19
75208;BME280;63795;55.684;37.864;2022-12-07T05:34:52;101105.88;;;-12.10;71.19
75208;BME280;63795;55.684;37.864;2022-12-07T05:39:54;101105.28;;;-12.12;71.24
75208;BME280;63795;55.684;37.864;2022-12-07T05:44:55;101096.47;;;-12.14;71.00
75208;BME280;63795;55.684;37.864;2022-12-07T05:49:56;101110.28;;;-12.09;71.53
75208;BME280;63795;55.684;37.864;2022-12-07T05:54:56;101115.75;;;-12.09;71.88
75208;BME280;63795;55.684;37.864;2022-12-07T05:59:57;101080.63;;;-12.24;71.85
75208;BME280;63795;55.684;37.864;2022-12-07T06:04:57;101104.47;;;-12.12;71.88
75208;BME280;63795;55.684;37.864;2022-12-07T06:09:57;101104.66;;;-12.14;72.42
75208;BME280;63795;55.684;37.864;2022-12-07T06:14:58;101104.91;;;-12.15;72.04
75208;BME280;63795;55.684;37.864;2022-12-07T06:19:59;101098.47;;;-12.21;72.56
75208;BME280;63795;55.684;37.864;2022-12-07T06:24:59;101083.22;;;-12.29;73.05
75208;BME280;63795;55.684;37.864;2022-12-07T06:30:01;101094.66;;;-12.20;72.80
75208;BME280;63795;55.684;37.864;2022-12-07T06:35:06;101093.72;;;-12.14;72.97
75208;BME280;63795;55.684;37.864;2022-12-07T06:40:07;101105.28;;;-12.12;73.24
75208;BME280;63795;55.684;37.864;2022-12-07T06:45:08;101087.66;;;-12.16;73.06
75208;BME280;63795;55.684;37.864;2022-12-07T06:50:09;101107.09;;;-12.06;73.18
75208;BME280;63795;55.684;37.864;2022-12-07T06:55:10;101091.31;;;-12.04;73.00
75208;BME280;63795;55.684;37.864;2022-12-07T07:00:10;101088.56;;;-12.04;72.66
75208;BME280;63795;55.684;37.864;2022-12-07T07:05:11;101104.66;;;-11.96;73.65
75208;BME280;63795;55.684;37.864;2022-12-07T07:10:12;101106.25;;;-11.88;73.17
75208;BME280;63795;55.684;37.864;2022-12-07T07:15:12;101110.94;;;-11.77;73.11
75208;BME280;63795;55.684;37.864;2022-12-07T07:20:13;101105.75;;;-11.67;72.84
75208;BME280;63795;55.684;37.864;2022-12-07T07:25:14;101098.47;;;-11.62;73.01
75208;BME280;63795;55.684;37.864;2022-12-07T07:30:14;101104.97;;;-11.45;72.78
75208;BME280;63795;55.684;37.864;2022-12-07T07:35:15;101096.44;;;-11.37;72.77
75208;BME280;63795;55.684;37.864;2022-12-07T07:40:16;101096.94;;;-11.28;72.53
75208;BME280;63795;55.684;37.864;2022-12-07T07:45:17;101093.41;;;-11.17;72.69
75208;BME280;63795;55.684;37.864;2022-12-07T07:50:18;101087.69;;;-11.15;72.42
75208;BME280;63795;55.684;37.864;2022-12-07T07:55:19;101077.69;;;-11.10;72.72
75208;BME280;63795;55.684;37.864;2022-12-07T08:00:20;101077.59;;;-11.03;72.19
75208;BME280;63795;55.684;37.864;2022-12-07T08:05:20;101075.94;;;-11.04;72.21
75208;BME280;63795;55.684;37.864;2022-12-07T08:10:21;101062.25;;;-11.04;72.15
75208;BME280;63795;55.684;37.864;2022-12-07T08:15:21;101039.28;;;-11.03;71.93
75208;BME280;63795;55.684;37.864;2022-12-07T08:20:22;101061.56;;;-10.88;71.94
75208;BME280;63795;55.684;37.864;2022-12-07T08:25:22;101058.09;;;-10.72;71.50
75208;BME280;63795;55.684;37.864;2022-12-07T08:30:23;101049.38;;;-10.58;71.30
75208;BME280;63795;55.684;37.864;2022-12-07T08:35:24;101052.34;;;-10.36;70.41
75208;BME280;63795;55.684;37.864;2022-12-07T08:40:25;101062.53;;;-10.20;70.09
75208;BME280;63795;55.684;37.864;2022-12-07T08:45:25;101056.78;;;-10.07;69.30
75208;BME280;63795;55.684;37.864;2022-12-07T08:50:26;101049.81;;;-9.98;68.45
75208;BME280;63795;55.684;37.864;2022-12-07T08:55:27;101032.91;;;-9.95;68.17
75208;BME280;63795;55.684;37.864;2022-12-07T09:00:29;101030.44;;;-9.80;67.81
75208;BME280;63795;55.684;37.864;2022-12-07T09:05:29;101028.41;;;-9.73;67.83
75208;BME280;63795;55.684;37.864;2022-12-07T09:10:30;101035.66;;;-9.67;67.24
75208;BME280;63795;55.684;37.864;2022-12-07T09:15:30;101023.19;;;-9.58;66.86
75208;BME280;63795;55.684;37.864;2022-12-07T09:20:31;101024.34;;;-9.53;67.36
75208;BME280;63795;55.684;37.864;2022-12-07T09:25:32;101012.91;;;-8.84;66.00
75208;BME280;63795;55.684;37.864;2022-12-07T09:30:33;101009.38;;;-7.98;64.29
75208;BME280;63795;55.684;37.864;2022-12-07T09:35:33;100996.19;;;-7.96;64.03
75208;BME280;63795;55.684;37.864;2022-12-07T09:40:34;101000.03;;;-8.19;64.27
75208;BME280;63795;55.684;37.864;2022-12-07T09:45:35;100997.19;;;-8.50;63.51
75208;BME280;63795;55.684;37.864;2022-12-07T09:50:36;101004.72;;;-8.62;63.86
75208;BME280;63795;55.684;37.864;2022-12-07T09:55:38;100982.25;;;-8.76;63.77
75208;BME280;63795;55.684;37.864;2022-12-07T10:00:40;100992.91;;;-8.80;63.25
75208;BME280;63795;55.684;37.864;2022-12-07T10:05:49;100991.25;;;-8.81;62.83
75208;BME280;63795;55.684;37.864;2022-12-07T10:10:53;100982.19;;;-8.81;63.11
75208;BME280;63795;55.684;37.864;2022-12-07T10:15:55;100977.25;;;-8.79;62.99
75208;BME280;63795;55.684;37.864;2022-12-07T10:26:32;100981.25;;;-8.70;62.84
75208;BME280;63795;55.684;37.864;2022-12-07T10:31:38;100985.06;;;-8.71;62.53
75208;BME280;63795;55.684;37.864;2022-12-07T10:36:39;100971.34;;;-8.71;62.72
75208;BME280;63795;55.684;37.864;2022-12-07T10:42:02;100972.75;;;-8.68;62.11
75208;BME280;63795;55.684;37.864;2022-12-07T11:03:17;100941.56;;;-8.79;62.20
75208;BME280;63795;55.684;37.864;2022-12-07T11:08:44;100952.94;;;-8.71;62.64
75208;BME280;63795;55.684;37.864;2022-12-07T11:14:26;100941.13;;;-8.71;62.78
75208;BME280;63795;55.684;37.864;2022-12-07T11:20:34;100937.03;;;-8.68;62.72
75208;BME280;63795;55.684;37.864;2022-12-07T11:25:24;100931.22;;;-8.72;62.51
75208;BME280;63795;55.684;37.864;2022-12-07T11:30:49;100918.56;;;-8.73;62.99
75208;BME280;63795;55.684;37.864;2022-12-07T11:35:58;100927.91;;;-8.74;63.00
75208;BME280;63795;55.684;37.864;2022-12-07T11:41:04;100919.91;;;-8.76;62.99
75208;BME280;63795;55.684;37.864;2022-12-07T11:46:15;100916.84;;;-8.79;62.77
75208;BME280;63795;55.684;37.864;2022-12-07T11:51:18;100889.22;;;-8.89;62.92
75208;BME280;63795;55.684;37.864;2022-12-07T11:56:23;100899.19;;;-8.83;62.84
75208;BME280;63795;55.684;37.864;2022-12-07T12:01:48;100906.38;;;-8.82;62.86
75208;BME280;63795;55.684;37.864;2022-12-07T12:06:46;100898.31;;;-8.89;63.04
75208;BME280;63795;55.684;37.864;2022-12-07T12:17:53;100890.25;;;-8.95;63.47
75208;BME280;63795;55.684;37.864;2022-12-07T12:23:09;100888.03;;;-8.98;63.54
75208;BME280;63795;55.684;37.864;2022-12-07T12:33:29;100888.19;;;-9.05;64.05
75208;BME280;63795;55.684;37.864;2022-12-07T12:38:51;100876.31;;;-9.10;64.16
75208;BME280;63795;55.684;37.864;2022-12-07T12:59:25;100869.09;;;-9.16;64.82
75208;BME280;63795;55.684;37.864;2022-12-07T13:05:15;100876.19;;;-9.20;64.98
75208;BME280;63795;55.684;37.864;2022-12-07T13:09:59;100866.78;;;-9.24;64.78
75208;BME280;63795;55.684;37.864;2022-12-07T13:14:59;100866.69;;;-9.29;64.87
75208;BME280;63795;55.684;37.864;2022-12-07T13:20:07;100868.84;;;-9.31;65.62
75208;BME280;63795;55.684;37.864;2022-12-07T13:30:20;100864.16;;;-9.52;66.53
75208;BME280;63795;55.684;37.864;2022-12-07T13:35:35;100872.31;;;-9.58;66.67
75208;BME280;63795;55.684;37.864;2022-12-07T13:40:37;100859.25;;;-9.67;66.82
75208;BME280;63795;55.684;37.864;2022-12-07T13:45:38;100863.09;;;-9.68;66.96
75208;BME280;63795;55.684;37.864;2022-12-07T13:50:55;100864.91;;;-9.74;67.42
75208;BME280;63795;55.684;37.864;2022-12-07T13:55:57;100858.78;;;-9.81;67.18
75208;BME280;63795;55.684;37.864;2022-12-07T14:00:59;100859.84;;;-9.82;67.41
75208;BME280;63795;55.684;37.864;2022-12-07T14:06:15;100841.63;;;-9.88;67.74
75208;BME280;63795;55.684;37.864;2022-12-07T14:11:18;100845.63;;;-9.95;67.23
75208;BME280;63795;55.684;37.864;2022-12-07T14:16:36;100838.00;;;-9.93;67.62
75208;BME280;63795;55.684;37.864;2022-12-07T14:21:37;100851.69;;;-9.93;67.88
75208;BME280;63795;55.684;37.864;2022-12-07T14:26:39;100849.47;;;-9.96;68.03
75208;BME280;63795;55.684;37.864;2022-12-07T14:31:42;100846.94;;;-9.98;67.99
75208;BME280;63795;55.684;37.864;2022-12-07T14:36:43;100827.44;;;-10.01;67.46
75208;BME280;63795;55.684;37.864;2022-12-07T14:41:43;100820.53;;;-10.04;67.81
75208;BME280;63795;55.684;37.864;2022-12-07T14:46:52;100835.91;;;-10.03;67.92
75208;BME280;63795;55.684;37.864;2022-12-07T14:51:53;100845.78;;;-10.02;68.04
75208;BME280;63795;55.684;37.864;2022-12-07T14:56:54;100828.13;;;-10.11;68.36
75208;BME280;63795;55.684;37.864;2022-12-07T15:01:54;100833.06;;;-10.08;68.06
75208;BME280;63795;55.684;37.864;2022-12-07T15:07:00;100827.22;;;-10.16;68.18
75208;BME280;63795;55.684;37.864;2022-12-07T15:12:01;100829.19;;;-10.12;68.80
75208;BME280;63795;55.684;37.864;2022-12-07T15:17:01;100822.66;;;-10.11;68.69
75208;BME280;63795;55.684;37.864;2022-12-07T15:22:01;100829.19;;;-10.12;68.68
75208;BME280;63795;55.684;37.864;2022-12-07T15:27:02;100811.59;;;-10.16;68.77
75208;BME280;63795;55.684;37.864;2022-12-07T15:32:03;100814.59;;;-10.17;68.61
75208;BME280;63795;55.684;37.864;2022-12-07T15:37:03;100817.31;;;-10.17;68.98
75208;BME280;63795;55.684;37.864;2022-12-07T15:42:04;100824.13;;;-10.20;69.03
75208;BME280;63795;55.684;37.864;2022-12-07T15:47:05;100810.41;;;-10.20;69.30
75208;BME280;63795;55.684;37.864;2022-12-07T15:52:05;100799.66;;;-10.26;69.38
75208;BME280;63795;55.684;37.864;2022-12-07T15:57:06;100796.97;;;-10.21;69.47
75208;BME280;63795;55.684;37.864;2022-12-07T16:02:08;100800.81;;;-10.22;70.01
75208;BME280;63795;55.684;37.864;2022-12-07T16:07:10;100785.53;;;-10.18;69.68
75208;BME280;63795;55.684;37.864;2022-12-07T16:12:13;100772.91;;;-10.19;69.65
75208;BME280;63795;55.684;37.864;2022-12-07T16:17:13;100747.34;;;-10.25;69.67
75208;BME280;63795;55.684;37.864;2022-12-07T16:22:14;100771.06;;;-10.14;69.77
75208;BME280;63795;55.684;37.864;2022-12-07T16:27:14;100778.22;;;-10.13;69.92
75208;BME280;63795;55.684;37.864;2022-12-07T16:32:15;100773.81;;;-10.14;70.00
75208;BME280;63795;55.684;37.864;2022-12-07T16:37:15;100775.22;;;-10.11;70.03
75208;BME280;63795;55.684;37.864;2022-12-07T16:42:16;100760.09;;;-10.14;69.68
75208;BME280;63795;55.684;37.864;2022-12-07T16:47:16;100771.41;;;-10.10;69.95
75208;BME280;63795;55.684;37.864;2022-12-07T16:52:17;100765.09;;;-10.11;69.94
75208;BME280;63795;55.684;37.864;2022-12-07T16:57:17;100751.28;;;-10.16;70.00
75208;BME280;63795;55.684;37.864;2022-12-07T17:02:20;100756.03;;;-10.11;70.03
75208;BME280;63795;55.684;37.864;2022-12-07T17:07:21;100749.72;;;-10.12;69.88
75208;BME280;63795;55.684;37.864;2022-12-07T17:12:22;100747.22;;;-10.13;70.09
75208;BME280;63795;55.684;37.864;2022-12-07T17:17:23;100730.38;;;-10.22;70.37
75208;BME280;63795;55.684;37.864;2022-12-07T17:22:23;100741.19;;;-10.15;70.23
75208;BME280;63795;55.684;37.864;2022-12-07T17:27:24;100737.09;;;-10.13;69.88
75208;BME280;63795;55.684;37.864;2022-12-07T17:32:24;100725.47;;;-10.20;70.14
75208;BME280;63795;55.684;37.864;2022-12-07T17:37:25;100740.47;;;-10.06;70.15
75208;BME280;63795;55.684;37.864;2022-12-07T17:42:26;100742.63;;;-10.08;70.18
75208;BME280;63795;55.684;37.864;2022-12-07T17:47:36;100720.34;;;-10.16;70.06
75208;BME280;63795;55.684;37.864;2022-12-07T17:52:38;100740.44;;;-10.11;69.89
75208;BME280;63795;55.684;37.864;2022-12-07T17:57:57;100738.75;;;-10.12;70.19
75208;BME280;63795;55.684;37.864;2022-12-07T18:02:58;100736.28;;;-10.13;70.34
75208;BME280;63795;55.684;37.864;2022-12-07T18:07:58;100728.06;;;-10.13;70.29
75208;BME280;63795;55.684;37.864;2022-12-07T18:13:00;100716.44;;;-10.20;70.28
75208;BME280;63795;55.684;37.864;2022-12-07T18:18:24;100718.41;;;-10.16;70.12
75208;BME280;63795;55.684;37.864;2022-12-07T18:23:25;100723.09;;;-10.16;70.21
75208;BME280;63795;55.684;37.864;2022-12-07T18:28:26;100721.66;;;-10.19;70.48
75208;BME280;63795;55.684;37.864;2022-12-07T18:33:27;100726.72;;;-10.11;70.84
75208;BME280;63795;55.684;37.864;2022-12-07T18:38:28;100712.72;;;-10.09;70.57
75208;BME280;63795;55.684;37.864;2022-12-07T18:43:29;100707.44;;;-10.16;70.53
75208;BME280;63795;55.684;37.864;2022-12-07T18:48:30;100697.97;;;-10.08;70.53
75208;BME280;63795;55.684;37.864;2022-12-07T18:53:32;100702.75;;;-9.99;70.34
75208;BME280;63795;55.684;37.864;2022-12-07T18:58:32;100695.28;;;-10.03;70.38
75208;BME280;63795;55.684;37.864;2022-12-07T19:03:33;100690.53;;;-10.13;70.65
75208;BME280;63795;55.684;37.864;2022-12-07T19:08:34;100691.84;;;-10.15;70.66
75208;BME280;63795;55.684;37.864;2022-12-07T19:13:36;100684.94;;;-10.18;70.81
75208;BME280;63795;55.684;37.864;2022-12-07T19:18:36;100681.41;;;-10.18;71.12
75208;BME280;63795;55.684;37.864;2022-12-07T19:23:37;100661.38;;;-10.19;70.81
75208;BME280;63795;55.684;37.864;2022-12-07T19:28:37;100658.56;;;-10.24;71.06
75208;BME280;63795;55.684;37.864;2022-12-07T19:33:38;100663.81;;;-10.22;71.28
75208;BME280;63795;55.684;37.864;2022-12-07T19:38:39;100665.63;;;-10.28;71.26
75208;BME280;63795;55.684;37.864;2022-12-07T19:43:40;100676.66;;;-10.23;71.45
75208;BME280;63795;55.684;37.864;2022-12-07T19:48:40;100666.78;;;-10.24;71.49
75208;BME280;63795;55.684;37.864;2022-12-07T19:53:41;100676.09;;;-10.25;71.67
75208;BME280;63795;55.684;37.864;2022-12-07T19:58:41;100667.28;;;-10.27;71.61
75208;BME280;63795;55.684;37.864;2022-12-07T20:03:42;100666.97;;;-10.30;71.42
75208;BME280;63795;55.684;37.864;2022-12-07T20:08:45;100667.72;;;-10.35;71.67
75208;BME280;63795;55.684;37.864;2022-12-07T20:13:46;100667.53;;;-10.28;71.58
75208;BME280;63795;55.684;37.864;2022-12-07T20:18:47;100672.72;;;-10.32;71.66
75208;BME280;63795;55.684;37.864;2022-12-07T20:23:47;100682.06;;;-10.28;71.46
75208;BME280;63795;55.684;37.864;2022-12-07T20:28:48;100671.88;;;-10.32;71.70
75208;BME280;63795;55.684;37.864;2022-12-07T20:33:48;100658.84;;;-10.42;72.08
75208;BME280;63795;55.684;37.864;2022-12-07T20:38:49;100670.97;;;-10.38;72.02
75208;BME280;63795;55.684;37.864;2022-12-07T20:43:49;100657.00;;;-10.36;71.95
75208;BME280;63795;55.684;37.864;2022-12-07T20:48:50;100653.38;;;-10.42;72.20
75208;BME280;63795;55.684;37.864;2022-12-07T20:53:50;100666.81;;;-10.40;71.71
75208;BME280;63795;55.684;37.864;2022-12-07T20:58:51;100654.19;;;-10.41;72.16
75208;BME280;63795;55.684;37.864;2022-12-07T21:03:56;100644.56;;;-10.44;71.65
75208;BME280;63795;55.684;37.864;2022-12-07T21:08:58;100615.88;;;-10.58;72.43
75208;BME280;63795;55.684;37.864;2022-12-07T21:13:59;100646.72;;;-10.46;72.14
75208;BME280;63795;55.684;37.864;2022-12-07T21:19:01;100646.16;;;-10.48;72.70
75208;BME280;63795;55.684;37.864;2022-12-07T21:24:03;100638.69;;;-10.53;72.38
75208;BME280;63795;55.684;37.864;2022-12-07T21:29:05;100635.69;;;-10.51;72.50
75208;BME280;63795;55.684;37.864;2022-12-07T21:34:06;100633.78;;;-10.51;72.33
75208;BME280;63795;55.684;37.864;2022-12-07T21:39:07;100627.16;;;-10.55;72.51
75208;BME280;63795;55.684;37.864;2022-12-07T21:44:08;100630.78;;;-10.49;72.63
75208;BME280;63795;55.684;37.864;2022-12-07T21:49:11;100628.72;;;-10.42;72.45
75208;BME280;63795;55.684;37.864;2022-12-07T21:54:12;100624.63;;;-10.39;72.62
75208;BME280;63795;55.684;37.864;2022-12-07T21:59:14;100620.66;;;-10.32;72.69
75208;BME280;63795;55.684;37.864;2022-12-07T22:04:20;100610.28;;;-10.30;72.65
75208;BME280;63795;55.684;37.864;2022-12-07T22:09:20;100607.00;;;-10.27;72.49
75208;BME280;63795;55.684;37.864;2022-12-07T22:14:22;100614.53;;;-10.17;72.45
75208;BME280;63795;55.684;37.864;2022-12-07T22:19:41;100623.41;;;-10.10;72.84
75208;BME280;63795;55.684;37.864;2022-12-07T22:24:42;100611.41;;;-10.04;72.63
75208;BME280;63795;55.684;37.864;2022-12-07T22:29:43;100617.84;;;-9.94;72.38
75208;BME280;63795;55.684;37.864;2022-12-07T22:34:44;100595.59;;;-9.97;72.40
75208;BME280;63795;55.684;37.864;2022-12-07T22:39:45;100604.22;;;-9.89;72.63
75208;BME280;63795;55.684;37.864;2022-12-07T22:44:46;100597.69;;;-9.83;72.57
75208;BME280;63795;55.684;37.864;2022-12-07T22:49:46;100586.72;;;-9.83;72.65
75208;BME280;63795;55.684;37.864;2022-12-07T22:54:47;100585.97;;;-9.78;72.53
75208;BME280;63795;55.684;37.864;2022-12-07T22:59:47;100591.19;;;-9.77;72.86
75208;BME280;63795;55.684;37.864;2022-12-07T23:04:48;100578.91;;;-9.74;72.69
75208;BME280;63795;55.684;37.864;2022-12-07T23:09:48;100569.81;;;-9.75;72.98
75208;BME280;63795;55.684;37.864;2022-12-07T23:14:49;100559.94;;;-9.76;72.77
75208;BME280;63795;55.684;37.864;2022-12-07T23:19:53;100549.50;;;-9.79;72.78
75208;BME280;63795;55.684;37.864;2022-12-07T23:24:53;100553.31;;;-9.80;72.65
75208;BME280;63795;55.684;37.864;2022-12-07T23:29:53;100557.44;;;-9.77;72.71
75208;BME280;63795;55.684;37.864;2022-12-07T23:34:54;100551.97;;;-9.77;72.71
75208;BME280;63795;55.684;37.864;2022-12-07T23:39:54;100555.81;;;-9.78;72.24
75208;BME280;63795;55.684;37.864;2022-12-07T23:44:55;100540.72;;;-9.76;72.38
75208;BME280;63795;55.684;37.864;2022-12-07T23:49:55;100541.88;;;-9.72;72.46
75208;BME280;63795;55.684;37.864;2022-12-07T23:54:56;100536.38;;;-9.72;72.50
75208;BME280;63795;55.684;37.864;2022-12-07T23:59:56;100519.38;;;-9.74;72.49
